Time;durP1;ratioP1;P1;durP2;ratioP2;P2;SDS_P1;SDS_P2;PMS_P1;PMS_P2;Temp;Humidity;BMP_temperature;BMP_pressure;BME280_temperature;BME280_humidity;BME280_pressure;Samples;Min_cycle;Max_cycle;Signal;HPM_P1;HPM_P2
2020/12/07 00:01:07;;;;;;;56.20;33.17;;;4.00;99.90;;;;;;5029410;28;20193;-77
2020/12/07 00:03:32;;;;;;;68.30;37.67;;;3.90;99.90;;;;;;5027300;28;20189;-76
2020/12/07 00:05:58;;;;;;;65.30;38.73;;;3.90;99.90;;;;;;5027775;28;20217;-77
2020/12/07 00:08:23;;;;;;;57.57;34.30;;;3.80;99.90;;;;;;5029623;28;20201;-77
2020/12/07 00:10:49;;;;;;;65.30;37.63;;;3.90;99.90;;;;;;5028492;28;20223;-76
2020/12/07 00:13:17;;;;;;;65.63;34.93;;;3.90;99.90;;;;;;5027296;28;20201;-76
2020/12/07 00:15:43;;;;;;;67.35;37.17;;;3.90;99.90;;;;;;5028124;28;20222;-76
2020/12/07 00:18:09;;;;;;;65.03;36.17;;;3.90;99.90;;;;;;5028878;28;20182;-76
2020/12/07 00:20:34;;;;;;;57.80;35.67;;;3.90;99.90;;;;;;5027845;28;20192;-76
2020/12/07 00:23:00;;;;;;;60.03;34.80;;;3.90;99.90;;;;;;5033303;28;20654;-76
2020/12/07 00:25:26;;;;;;;60.07;36.97;;;3.90;99.90;;;;;;5030840;28;20218;-76
2020/12/07 00:27:52;;;;;;;60.00;35.60;;;4.00;99.90;;;;;;5027694;28;20586;-76
2020/12/07 00:30:18;;;;;;;66.87;35.07;;;3.90;99.90;;;;;;5028353;28;20181;-76
2020/12/07 00:32:43;;;;;;;55.97;35.00;;;3.90;99.90;;;;;;5028290;28;20916;-77
2020/12/07 00:35:09;;;;;;;64.90;38.47;;;3.90;99.90;;;;;;5027368;28;20597;-77
2020/12/07 00:37:35;;;;;;;59.47;37.83;;;3.90;99.90;;;;;;5028146;28;20249;-77
2020/12/07 00:40:01;;;;;;;66.57;37.83;;;3.90;99.90;;;;;;5028490;28;20213;-77
2020/12/07 00:42:26;;;;;;;62.60;36.20;;;3.90;99.90;;;;;;5027535;28;20685;-76
2020/12/07 00:44:52;;;;;;;66.07;34.80;;;3.90;99.90;;;;;;5028169;28;20228;-77
2020/12/07 00:47:17;;;;;;;62.07;34.80;;;3.90;99.90;;;;;;5027831;28;20197;-76
2020/12/07 00:49:43;;;;;;;62.53;38.00;;;4.00;99.90;;;;;;5028048;28;20177;-77
2020/12/07 00:52:09;;;;;;;60.93;36.60;;;4.10;99.90;;;;;;5028086;28;20664;-76
2020/12/07 00:54:35;;;;;;;70.27;39.87;;;4.00;99.90;;;;;;5027910;28;20243;-76
2020/12/07 00:57:01;;;;;;;78.93;40.88;;;4.00;99.90;;;;;;5027367;28;20790;-76
2020/12/07 00:59:28;;;;;;;76.15;37.85;;;4.10;99.90;;;;;;5028282;28;20178;-76
2020/12/07 01:01:55;;;;;;;62.88;35.65;;;3.90;99.90;;;;;;5028123;28;20660;-76
2020/12/07 01:04:21;;;;;;;74.57;42.22;;;3.80;99.90;;;;;;5026942;28;20295;-76
2020/12/07 01:06:47;;;;;;;82.80;42.20;;;3.90;99.90;;;;;;5028502;28;20276;-76
2020/12/07 01:09:17;;;;;;;73.67;40.40;;;4.00;99.90;;;;;;5028170;28;21146;-76
2020/12/07 01:11:43;;;;;;;77.50;38.45;;;3.90;99.90;;;;;;5027149;28;20427;-76
2020/12/07 01:14:13;;;;;;;75.00;39.92;;;3.90;99.90;;;;;;5027528;28;20228;-76
2020/12/07 01:16:40;;;;;;;64.10;34.08;;;3.90;99.90;;;;;;5028774;28;20266;-76
2020/12/07 01:19:07;;;;;;;63.42;36.80;;;3.90;99.90;;;;;;5025873;28;20725;-76
2020/12/07 01:21:33;;;;;;;52.28;31.02;;;3.90;99.90;;;;;;5027350;28;20219;-77
2020/12/07 01:24:00;;;;;;;63.15;35.50;;;3.90;99.90;;;;;;5031777;28;20215;-75
2020/12/07 01:26:26;;;;;;;61.42;34.97;;;4.00;99.90;;;;;;5029946;28;20236;-76
2020/12/07 01:28:52;;;;;;;48.33;28.55;;;3.90;99.90;;;;;;5028042;28;20182;-76
2020/12/07 01:31:18;;;;;;;69.22;38.45;;;3.80;99.90;;;;;;5027656;28;20550;-76
2020/12/07 01:33:45;;;;;;;55.93;33.33;;;3.90;99.90;;;;;;5026432;28;20184;-76
2020/12/07 01:36:11;;;;;;;64.93;35.33;;;3.80;99.90;;;;;;5028123;28;20190;-77
2020/12/07 01:38:37;;;;;;;55.80;33.83;;;3.80;99.90;;;;;;5028029;28;20724;-76
2020/12/07 01:41:03;;;;;;;61.38;33.65;;;3.80;99.90;;;;;;5026748;28;20197;-75
2020/12/07 01:43:28;;;;;;;61.57;33.80;;;3.70;99.90;;;;;;5028380;28;20186;-76
2020/12/07 01:45:56;;;;;;;59.20;34.13;;;3.70;99.90;;;;;;5029779;28;20197;-75
2020/12/07 01:48:25;;;;;;;60.40;35.42;;;3.70;99.90;;;;;;5032825;28;20228;-75
2020/12/07 01:50:51;;;;;;;61.70;36.38;;;3.80;99.90;;;;;;5032862;28;20166;-75
2020/12/07 01:53:17;;;;;;;60.35;32.05;;;3.80;99.90;;;;;;5032977;28;20274;-75
2020/12/07 01:55:45;;;;;;;63.10;33.60;;;3.70;99.90;;;;;;5032361;28;20198;-75
2020/12/07 01:58:11;;;;;;;66.60;36.08;;;3.60;99.90;;;;;;5032704;28;20417;-75
2020/12/07 02:00:37;;;;;;;60.37;35.60;;;3.60;99.90;;;;;;5032840;28;20182;-75
2020/12/07 02:03:03;;;;;;;72.13;33.57;;;3.60;99.90;;;;;;5032862;28;20188;-75
2020/12/07 02:05:29;;;;;;;70.03;37.13;;;3.70;99.90;;;;;;5032241;28;20209;-76
2020/12/07 02:08:13;;;;;;;74.30;34.60;;;3.60;99.90;;;;;;5032508;28;20416;-75
2020/12/07 02:10:38;;;;;;;64.80;35.97;;;3.60;99.90;;;;;;5032642;28;20183;-75
2020/12/07 02:13:04;;;;;;;70.30;38.50;;;3.60;99.90;;;;;;5032680;28;20173;-75
2020/12/07 02:15:30;;;;;;;71.33;36.00;;;3.60;99.90;;;;;;5032095;28;20521;-75
2020/12/07 02:17:56;;;;;;;69.18;35.08;;;3.50;99.90;;;;;;5032432;28;20209;-75
2020/12/07 02:20:22;;;;;;;72.20;38.00;;;3.50;99.90;;;;;;5032725;28;20258;-75
2020/12/07 02:22:47;;;;;;;76.17;37.53;;;3.50;99.90;;;;;;5034109;28;20825;-76
2020/12/07 02:25:13;;;;;;;64.10;34.90;;;3.60;99.90;;;;;;5035344;28;20459;-76
2020/12/07 02:27:39;;;;;;;69.70;36.60;;;3.70;99.90;;;;;;5036143;28;20177;-75
2020/12/07 02:30:04;;;;;;;71.60;37.13;;;3.70;99.90;;;;;;5035948;28;20274;-75
2020/12/07 02:32:30;;;;;;;75.57;38.43;;;3.70;99.90;;;;;;5035942;28;20678;-75
2020/12/07 02:34:55;;;;;;;80.10;39.60;;;3.70;99.90;;;;;;5035711;28;20188;-75
2020/12/07 02:37:22;;;;;;;72.63;39.13;;;3.70;99.90;;;;;;5035924;28;20184;-75
2020/12/07 02:39:48;;;;;;;67.68;34.65;;;3.70;99.90;;;;;;5035953;28;20570;-76
2020/12/07 02:42:14;;;;;;;74.70;37.90;;;3.70;99.90;;;;;;5036070;28;20185;-75
2020/12/07 02:44:40;;;;;;;68.63;34.33;;;3.70;99.90;;;;;;5035568;28;20197;-75
2020/12/07 02:47:06;;;;;;;69.07;32.23;;;3.70;99.90;;;;;;5035846;28;20417;-75
2020/12/07 02:49:31;;;;;;;80.70;39.63;;;3.70;99.90;;;;;;5035814;28;20526;-75
2020/12/07 02:51:57;;;;;;;76.80;36.87;;;3.70;99.90;;;;;;5035633;28;20192;-76
2020/12/07 02:54:23;;;;;;;70.93;36.80;;;3.60;99.90;;;;;;5035111;28;20719;-75
2020/12/07 02:56:49;;;;;;;75.00;39.77;;;3.70;99.90;;;;;;5035597;28;20169;-75
2020/12/07 02:59:14;;;;;;;82.50;39.20;;;3.70;99.90;;;;;;5035656;28;20172;-75
2020/12/07 03:01:40;;;;;;;76.43;41.10;;;3.60;99.90;;;;;;5035504;28;20553;-75
2020/12/07 03:04:05;;;;;;;76.10;38.03;;;3.70;99.90;;;;;;5035020;28;20193;-76
2020/12/07 03:06:31;;;;;;;72.40;39.13;;;3.60;99.90;;;;;;5035274;28;20603;-75
2020/12/07 03:08:57;;;;;;;88.83;42.10;;;3.50;99.90;;;;;;5035270;28;20177;-76
2020/12/07 03:11:23;;;;;;;65.50;38.80;;;3.50;99.90;;;;;;5035652;28;20178;-76
2020/12/07 03:13:49;;;;;;;81.50;42.13;;;3.60;99.90;;;;;;5034885;28;20260;-76
2020/12/07 03:16:15;;;;;;;67.88;38.95;;;3.70;99.90;;;;;;5035140;28;20207;-75
2020/12/07 03:18:40;;;;;;;76.30;41.00;;;3.70;99.90;;;;;;5035113;28;20261;-75
2020/12/07 03:21:06;;;;;;;74.90;40.43;;;3.60;99.90;;;;;;5035007;28;20246;-75
2020/12/07 03:23:32;;;;;;;75.43;41.57;;;3.60;99.90;;;;;;5035061;28;20253;-74
2020/12/07 03:25:58;;;;;;;71.00;38.70;;;3.60;99.90;;;;;;5034670;28;20201;-75
2020/12/07 03:28:23;;;;;;;69.10;40.72;;;3.60;99.90;;;;;;5034865;28;20323;-75
2020/12/07 03:30:49;;;;;;;72.20;41.17;;;3.60;99.90;;;;;;5034906;28;20174;-75
2020/12/07 03:33:15;;;;;;;71.53;39.90;;;3.60;99.90;;;;;;5034868;28;20305;-74
2020/12/07 03:35:40;;;;;;;67.37;40.70;;;3.60;99.90;;;;;;5034793;28;20201;-75
2020/12/07 03:38:06;;;;;;;68.83;40.10;;;3.70;99.90;;;;;;5034733;28;20176;-75
2020/12/07 03:40:33;;;;;;;70.53;39.23;;;3.80;99.90;;;;;;5034681;28;20503;-76
2020/12/07 03:43:00;;;;;;;62.05;35.55;;;3.70;99.90;;;;;;5034831;28;20200;-75
2020/12/07 03:45:26;;;;;;;70.43;38.13;;;3.60;99.90;;;;;;5034243;28;20200;-75
2020/12/07 03:47:52;;;;;;;63.13;35.80;;;3.70;99.90;;;;;;5034921;28;20578;-75
2020/12/07 03:50:18;;;;;;;59.53;36.27;;;3.70;99.90;;;;;;5034570;28;20205;-75
2020/12/07 03:52:43;;;;;;;61.77;34.93;;;3.80;99.90;;;;;;5034607;28;20176;-75
2020/12/07 03:55:09;;;;;;;62.70;36.47;;;3.80;99.90;;;;;;5034165;28;20443;-75
2020/12/07 03:57:34;;;;;;;72.07;37.20;;;3.80;99.90;;;;;;5034411;28;20183;-75
2020/12/07 04:00:00;;;;;;;58.10;34.50;;;3.70;99.90;;;;;;5034532;28;20268;-75
2020/12/07 04:02:27;;;;;;;68.17;36.77;;;3.60;99.90;;;;;;5034634;28;20546;-75
2020/12/07 04:05:00;;;;;;;58.92;34.17;;;3.70;99.90;;;;;;5033845;28;20209;-75
2020/12/07 04:07:25;;;;;;;69.82;37.65;;;3.80;99.90;;;;;;5034596;28;20170;-75
2020/12/07 04:09:51;;;;;;;57.20;35.20;;;3.70;99.90;;;;;;5034287;28;20173;-75
2020/12/07 04:12:17;;;;;;;60.60;34.53;;;3.60;99.90;;;;;;5034041;28;20704;-75
2020/12/07 04:14:42;;;;;;;59.63;34.60;;;3.50;99.90;;;;;;5033594;28;20208;-75
2020/12/07 04:17:08;;;;;;;67.23;36.63;;;3.50;99.90;;;;;;5033918;28;20181;-75
2020/12/07 04:19:33;;;;;;;59.50;33.27;;;3.60;99.90;;;;;;5034000;28;20228;-75
2020/12/07 04:21:59;;;;;;;61.67;33.17;;;3.60;99.90;;;;;;5033887;28;20205;-76
2020/12/07 04:24:25;;;;;;;59.90;34.00;;;3.60;99.90;;;;;;5033482;28;20650;-75
2020/12/07 04:26:50;;;;;;;56.20;32.90;;;3.60;99.90;;;;;;5033768;28;20662;-75
2020/12/07 04:29:16;;;;;;;57.10;33.90;;;3.60;99.90;;;;;;5033738;28;20173;-75
2020/12/07 04:31:41;;;;;;;57.33;32.57;;;3.70;99.90;;;;;;5033764;28;20229;-75
2020/12/07 04:34:07;;;;;;;61.03;33.47;;;3.70;99.90;;;;;;5033383;28;20701;-75
2020/12/07 04:36:33;;;;;;;59.67;32.70;;;3.60;99.90;;;;;;5033726;28;20172;-75
2020/12/07 04:38:58;;;;;;;57.27;33.27;;;3.70;99.90;;;;;;5033371;28;20185;-75
2020/12/07 04:41:24;;;;;;;53.07;31.67;;;3.70;99.90;;;;;;5033679;28;20181;-75
2020/12/07 04:43:49;;;;;;;56.27;33.53;;;3.70;99.90;;;;;;5033223;28;20184;-75
2020/12/07 04:46:16;;;;;;;66.97;35.97;;;3.80;99.90;;;;;;5033361;28;20536;-75
2020/12/07 04:48:44;;;;;;;58.92;35.45;;;3.70;99.90;;;;;;5033769;28;20256;-75
2020/12/07 04:51:10;;;;;;;61.95;36.25;;;3.80;99.90;;;;;;5033520;28;20225;-75
2020/12/07 04:53:38;;;;;;;57.10;35.10;;;3.80;99.90;;;;;;5033628;28;20181;-75
2020/12/07 04:56:04;;;;;;;57.63;31.05;;;3.90;99.90;;;;;;5033348;28;20222;-75
2020/12/07 04:58:30;;;;;;;69.53;37.90;;;3.80;99.90;;;;;;5033307;28;20177;-75
2020/12/07 05:00:55;;;;;;;58.70;35.70;;;3.80;99.90;;;;;;5033337;28;20241;-75
2020/12/07 05:03:21;;;;;;;56.20;32.87;;;3.70;99.90;;;;;;5033282;28;20748;-75
2020/12/07 05:05:51;;;;;;;63.57;35.40;;;3.80;99.90;;;;;;5033529;28;20560;-75
2020/12/07 05:08:17;;;;;;;66.07;36.15;;;3.70;99.90;;;;;;5033359;28;20167;-75
2020/12/07 05:10:44;;;;;;;54.37;32.47;;;3.80;99.90;;;;;;5033263;28;20174;-75
2020/12/07 05:15:54;;;;;;;57.80;33.67;;;3.80;99.90;;;;;;5032871;28;20223;-75
2020/12/07 05:18:19;;;;;;;58.33;35.43;;;3.80;99.90;;;;;;5033079;28;20178;-75
2020/12/07 05:20:45;;;;;;;68.93;36.30;;;3.80;99.90;;;;;;5033004;28;20177;-76
2020/12/07 05:23:17;;;;;;;60.08;34.85;;;3.80;99.90;;;;;;5033021;28;20181;-75
2020/12/07 05:25:44;;;;;;;65.25;35.70;;;3.70;99.90;;;;;;5032740;28;20209;-76
2020/12/07 05:28:12;;;;;;;58.25;31.08;;;3.80;99.90;;;;;;5033116;28;20166;-75
2020/12/07 05:30:45;;;;;;;56.53;33.00;;;3.70;99.90;;;;;;5033016;28;20556;-75
2020/12/07 05:33:15;;;;;;;53.15;32.45;;;3.70;99.90;;;;;;5032896;28;20180;-75
2020/12/07 05:35:51;;;;;;;56.55;32.80;;;3.80;99.90;;;;;;5032504;28;20203;-75
2020/12/07 05:38:17;;;;;;;52.92;30.60;;;3.80;99.90;;;;;;5033257;28;20177;-75
2020/12/07 05:40:43;;;;;;;43.45;25.17;;;3.70;99.90;;;;;;5033031;28;20265;-75
2020/12/07 05:43:11;;;;;;;53.57;29.47;;;3.70;99.90;;;;;;5033105;28;20172;-75
2020/12/07 05:45:36;;;;;;;54.72;29.85;;;3.60;99.90;;;;;;5032281;28;20215;-75
2020/12/07 05:48:03;;;;;;;51.43;31.53;;;3.60;99.90;;;;;;5033039;28;20177;-75
2020/12/07 05:50:33;;;;;;;54.25;32.70;;;3.70;99.90;;;;;;5033004;28;20205;-75
2020/12/07 05:53:02;;;;;;;61.22;31.92;;;3.70;99.90;;;;;;5033006;28;20169;-75
2020/12/07 05:55:30;;;;;;;53.42;31.70;;;3.70;99.90;;;;;;5032214;28;20272;-75
2020/12/07 05:58:10;;;;;;;57.30;31.67;;;3.60;99.90;;;;;;5034692;28;20231;-75
2020/12/07 06:00:37;;;;;;;59.55;32.05;;;3.70;99.90;;;;;;5036763;28;20180;-75
2020/12/07 06:03:05;;;;;;;57.92;32.80;;;3.70;99.90;;;;;;5036721;28;20196;-75
2020/12/07 06:05:31;;;;;;;58.45;33.22;;;3.70;99.90;;;;;;5035965;28;20201;-74
2020/12/07 06:08:21;;;;;;;55.25;32.45;;;3.70;99.90;;;;;;5036660;28;20169;-75
2020/12/07 06:11:04;;;;;;;53.70;29.77;;;3.70;99.90;;;;;;5036503;28;20181;-75
2020/12/07 06:13:30;;;;;;;56.17;32.22;;;3.80;99.90;;;;;;5036357;28;20165;-76
2020/12/07 06:15:59;;;;;;;58.38;32.70;;;3.90;99.90;;;;;;5035916;28;20240;-76
2020/12/07 06:18:32;;;;;;;52.78;29.75;;;3.90;99.90;;;;;;5036298;28;20170;-75
2020/12/07 06:21:15;;;;;;;51.45;31.35;;;3.80;99.90;;;;;;5036275;28;20184;-76
2020/12/07 06:23:41;;;;;;;52.28;31.48;;;3.80;99.90;;;;;;5035833;28;20165;-76
2020/12/07 06:26:09;;;;;;;49.92;29.65;;;3.60;99.90;;;;;;5036019;28;20200;-75
2020/12/07 06:28:37;;;;;;;51.17;30.52;;;3.80;99.90;;;;;;5036112;28;20169;-75
2020/12/07 06:31:14;;;;;;;53.17;31.65;;;3.70;99.90;;;;;;5036085;28;20193;-75
2020/12/07 06:33:44;;;;;;;47.03;28.40;;;3.80;99.90;;;;;;5035631;28;20169;-75
2020/12/07 06:36:34;;;;;;;57.35;30.58;;;3.80;99.90;;;;;;5036261;28;20185;-75
2020/12/07 06:39:04;;;;;;;48.58;28.63;;;4.00;99.90;;;;;;5035953;28;20184;-75
2020/12/07 06:41:37;;;;;;;53.10;30.23;;;4.00;99.90;;;;;;5036008;28;20543;-75
2020/12/07 06:44:08;;;;;;;47.75;29.90;;;3.80;99.90;;;;;;5035336;28;20201;-75
2020/12/07 06:47:10;;;;;;;47.90;28.52;;;3.80;99.90;;;;;;5035705;28;20596;-75
2020/12/07 06:52:11;;;;;;;45.90;28.65;;;4.00;99.90;;;;;;5035971;28;20240;-76
2020/12/07 06:57:38;;;;;;;44.70;27.25;;;4.00;99.90;;;;;;5046878;28;20196;-75
2020/12/07 07:00:07;;;;;;;47.20;27.08;;;4.10;99.90;;;;;;5054204;28;20173;-76
2020/12/07 07:02:33;;;;;;;45.28;28.83;;;4.10;99.90;;;;;;5055332;28;20166;-75
2020/12/07 07:05:00;;;;;;;50.67;28.25;;;4.00;99.90;;;;;;5054397;28;20220;-75
2020/12/07 07:07:28;;;;;;;42.95;27.38;;;4.00;99.90;;;;;;5054847;28;20629;-75
2020/12/07 07:09:54;;;;;;;44.67;25.65;;;4.00;99.90;;;;;;5054691;28;20195;-76
2020/12/07 07:12:20;;;;;;;42.27;25.70;;;4.10;99.90;;;;;;5055136;28;20170;-75
2020/12/07 07:14:52;;;;;;;48.70;26.88;;;4.00;99.90;;;;;;5054900;28;20208;-75
2020/12/07 07:17:18;;;;;;;41.88;24.38;;;4.00;99.90;;;;;;5055374;28;20181;-75
2020/12/07 07:19:44;;;;;;;42.50;25.23;;;4.00;99.90;;;;;;5055277;28;20629;-75
2020/12/07 07:22:09;;;;;;;45.63;28.00;;;3.90;99.90;;;;;;5054989;28;20185;-75
2020/12/07 07:25:00;;;;;;;51.03;27.13;;;3.90;99.90;;;;;;5054541;28;20431;-75
2020/12/07 07:30:10;;;;;;;34.25;20.08;;;3.90;99.90;;;;;;5055063;28;20300;-75
2020/12/07 07:32:40;;;;;;;36.80;20.57;;;3.80;99.90;;;;;;5054813;28;20257;-75
2020/12/07 07:35:05;;;;;;;34.00;22.02;;;3.90;99.90;;;;;;5054668;28;20205;-76
2020/12/07 07:37:31;;;;;;;35.13;21.40;;;4.00;99.90;;;;;;5054802;28;20543;-75
2020/12/07 07:40:02;;;;;;;39.17;20.93;;;4.00;99.90;;;;;;5054734;28;20416;-75
2020/12/07 07:42:29;;;;;;;34.70;21.95;;;4.00;99.90;;;;;;5054861;28;20183;-75
2020/12/07 07:44:56;;;;;;;27.30;18.92;;;4.10;99.90;;;;;;5054492;28;20254;-75
2020/12/07 07:47:32;;;;;;;44.38;21.80;;;4.10;99.90;;;;;;5054879;28;20522;-75
2020/12/07 08:17:24;;;;;;;26.55;17.85;;;4.00;99.90;;;;;;5054021;28;20558;-75
2020/12/07 08:20:04;;;;;;;32.87;16.57;;;4.10;99.90;;;;;;5053376;28;20174;-75
2020/12/07 08:22:30;;;;;;;28.55;16.90;;;4.20;99.90;;;;;;5054020;28;20208;-75
2020/12/07 08:25:01;;;;;;;27.33;16.53;;;4.20;99.90;;;;;;5053361;28;20221;-75
2020/12/07 08:27:34;;;;;;;26.42;16.02;;;4.30;99.90;;;;;;5053993;28;20200;-75
2020/12/07 08:30:06;;;;;;;25.23;16.02;;;4.30;99.90;;;;;;5053745;28;20195;-77
2020/12/07 08:32:32;;;;;;;29.15;17.42;;;4.20;99.90;;;;;;5052379;28;20269;-76
2020/12/07 08:34:59;;;;;;;28.15;16.40;;;4.10;99.90;;;;;;5053181;28;20673;-75
2020/12/07 08:37:25;;;;;;;25.13;16.15;;;4.10;99.90;;;;;;5053562;28;20184;-75
2020/12/07 08:39:52;;;;;;;22.48;14.35;;;4.20;99.90;;;;;;5053725;28;20183;-76
2020/12/07 08:42:18;;;;;;;25.52;15.60;;;4.20;99.90;;;;;;5053400;28;20185;-75
2020/12/07 08:44:44;;;;;;;24.35;14.60;;;4.20;99.90;;;;;;5053108;28;20185;-76
2020/12/07 08:47:10;;;;;;;27.53;16.10;;;4.30;99.90;;;;;;5053389;28;20182;-75
2020/12/07 08:49:36;;;;;;;26.75;16.70;;;4.20;99.90;;;;;;5053455;28;20184;-75
2020/12/07 08:52:03;;;;;;;26.75;16.13;;;4.10;99.90;;;;;;5053410;28;20212;-75
2020/12/07 08:54:28;;;;;;;24.92;13.95;;;4.10;99.90;;;;;;5052970;28;20197;-75
2020/12/07 08:56:54;;;;;;;21.67;14.10;;;4.10;99.90;;;;;;5053262;28;20173;-75
2020/12/07 08:59:20;;;;;;;24.10;15.07;;;4.10;99.90;;;;;;5053391;28;20198;-75
2020/12/07 09:01:45;;;;;;;20.07;12.80;;;4.20;99.90;;;;;;5053232;28;20205;-75
2020/12/07 09:04:11;;;;;;;21.73;13.40;;;4.20;99.90;;;;;;5052912;28;20200;-75
2020/12/07 09:06:41;;;;;;;21.47;13.83;;;4.30;99.90;;;;;;5053319;28;20204;-75
2020/12/07 09:09:09;;;;;;;23.90;13.15;;;4.30;99.90;;;;;;5053226;28;20414;-75
2020/12/07 09:11:35;;;;;;;18.45;12.00;;;4.20;99.90;;;;;;5053190;28;20576;-75
2020/12/07 09:14:06;;;;;;;26.10;13.47;;;4.20;99.90;;;;;;5052518;28;20170;-74
2020/12/07 09:16:32;;;;;;;17.88;11.45;;;4.20;99.90;;;;;;5053150;28;20267;-75
2020/12/07 09:18:59;;;;;;;16.42;10.52;;;4.20;99.90;;;;;;5052981;28;20179;-76
2020/12/07 09:21:24;;;;;;;19.65;11.13;;;4.20;99.90;;;;;;5053072;28;20201;-76
2020/12/07 09:23:50;;;;;;;14.67;10.90;;;4.20;99.90;;;;;;5052735;28;20647;-76
2020/12/07 09:26:16;;;;;;;15.87;10.87;;;4.40;99.90;;;;;;5053009;28;20229;-75
2020/12/07 09:28:41;;;;;;;19.43;10.00;;;4.50;99.90;;;;;;5052964;28;20169;-75
2020/12/07 09:31:07;;;;;;;15.20;10.90;;;4.50;99.90;;;;;;5053613;28;20183;-76
2020/12/07 09:33:36;;;;;;;17.23;10.53;;;4.60;99.90;;;;;;5056850;28;20256;-75
2020/12/07 09:36:02;;;;;;;13.57;10.23;;;4.60;99.90;;;;;;5056864;28;20439;-75
2020/12/07 09:38:28;;;;;;;11.90;9.63;;;4.70;99.90;;;;;;5056977;28;20268;-75
2020/12/07 09:40:54;;;;;;;11.80;8.00;;;4.70;99.90;;;;;;5056929;28;20602;-75
2020/12/07 09:43:20;;;;;;;11.67;8.00;;;4.70;99.90;;;;;;5056889;28;20649;-76
2020/12/07 09:45:45;;;;;;;13.27;7.80;;;4.90;99.90;;;;;;5056354;28;20820;-76
2020/12/07 09:48:11;;;;;;;13.30;8.27;;;4.90;99.90;;;;;;5057090;28;20227;-75
2020/12/07 09:50:37;;;;;;;13.27;8.07;;;5.00;99.90;;;;;;5056778;28;20181;-75
2020/12/07 09:53:07;;;;;;;14.17;9.17;;;5.00;99.90;;;;;;5056647;28;20176;-77
2020/12/07 09:55:33;;;;;;;17.55;8.40;;;5.00;99.90;;;;;;5056031;28;20204;-76
2020/12/07 09:57:59;;;;;;;10.40;8.20;;;5.00;99.90;;;;;;5056473;28;20177;-75
2020/12/07 10:00:24;;;;;;;13.57;8.10;;;5.00;99.90;;;;;;5056609;28;20462;-76
2020/12/07 10:02:50;;;;;;;10.20;8.03;;;5.10;99.90;;;;;;5056554;28;20181;-75
2020/12/07 10:05:16;;;;;;;14.90;6.50;;;5.20;99.90;;;;;;5055966;28;20565;-76
2020/12/07 10:07:41;;;;;;;10.60;6.37;;;5.30;99.90;;;;;;5056351;28;20206;-76
2020/12/07 10:10:07;;;;;;;8.73;6.03;;;5.20;99.90;;;;;;5056552;28;20632;-75
2020/12/07 10:12:33;;;;;;;8.83;5.80;;;5.20;99.90;;;;;;5056493;28;20176;-75
2020/12/07 10:15:00;;;;;;;7.97;6.37;;;5.40;99.90;;;;;;5055932;28;20452;-75
2020/12/07 10:17:25;;;;;;;8.13;5.70;;;5.50;99.90;;;;;;5056381;28;20178;-76
2020/12/07 10:19:51;;;;;;;7.23;6.27;;;5.50;99.90;;;;;;5056356;28;20173;-75
2020/12/07 10:22:16;;;;;;;11.10;5.40;;;5.50;99.90;;;;;;5056255;28;20289;-74
2020/12/07 10:24:42;;;;;;;9.30;5.33;;;5.40;99.90;;;;;;5055838;28;20190;-75
2020/12/07 10:27:08;;;;;;;8.53;5.03;;;5.30;99.90;;;;;;5056183;28;20188;-75
2020/12/07 10:29:33;;;;;;;6.53;4.97;;;5.40;99.90;;;;;;5056004;28;20178;-76
2020/12/07 10:31:59;;;;;;;6.23;4.67;;;5.50;99.90;;;;;;5055954;28;20638;-75
2020/12/07 10:34:24;;;;;;;8.93;5.10;;;5.40;99.90;;;;;;5055579;28;20193;-75
2020/12/07 10:36:50;;;;;;;6.10;4.50;;;5.40;99.90;;;;;;5055993;28;20178;-75
2020/12/07 10:39:16;;;;;;;9.70;5.33;;;5.50;99.90;;;;;;5054631;28;20188;-76
2020/12/07 10:41:42;;;;;;;6.90;4.77;;;5.50;99.90;;;;;;5055675;28;20470;-75
2020/12/07 10:44:08;;;;;;;8.60;5.43;;;5.50;99.90;;;;;;5054588;28;20611;-74
2020/12/07 10:46:37;;;;;;;10.25;6.38;;;5.60;99.90;;;;;;5055639;28;20212;-76
2020/12/07 10:49:06;;;;;;;8.98;6.40;;;5.70;99.90;;;;;;5055782;28;20215;-75
2020/12/07 10:51:32;;;;;;;11.75;5.90;;;6.00;99.90;;;;;;5055688;28;20175;-76
2020/12/07 10:53:59;;;;;;;8.90;7.33;;;5.80;99.90;;;;;;5055174;28;20660;-75
2020/12/07 10:56:25;;;;;;;10.18;6.28;;;5.90;99.90;;;;;;5055688;28;20416;-75
2020/12/07 10:58:51;;;;;;;12.17;7.70;;;5.80;99.90;;;;;;5055735;28;20207;-75
2020/12/07 11:01:17;;;;;;;12.53;9.10;;;5.80;99.90;;;;;;5055761;28;20176;-76
2020/12/07 11:03:43;;;;;;;14.10;8.27;;;5.90;99.90;;;;;;5054994;28;20181;-75
2020/12/07 11:06:15;;;;;;;13.03;8.60;;;5.90;99.90;;;;;;5055433;28;20205;-75
2020/12/07 11:09:17;;;;;;;14.32;9.18;;;5.90;99.90;;;;;;5055604;28;20928;-75
2020/12/07 11:11:33;;;;;;;10.30;8.02;;;5.90;99.90;;;;;;5055976;28;20277;-75
2020/12/07 11:13:58;;;;;;;14.00;8.20;;;5.90;99.90;;;;;;5054702;28;20303;-75
2020/12/07 11:16:24;;;;;;;12.70;9.57;;;5.90;99.90;;;;;;5055382;28;20234;-75
2020/12/07 11:18:50;;;;;;;11.85;8.23;;;5.90;99.90;;;;;;5055243;28;20170;-76
2020/12/07 11:21:16;;;;;;;10.83;8.00;;;5.90;99.90;;;;;;5053797;28;20594;-76
2020/12/07 11:23:44;;;;;;;18.73;10.37;;;6.00;99.90;;;;;;5054773;28;20772;-76
2020/12/07 11:26:10;;;;;;;15.00;11.23;;;6.00;99.90;;;;;;5054872;28;20444;-76
2020/12/07 11:28:38;;;;;;;15.07;9.00;;;6.00;99.90;;;;;;5054957;28;20170;-75
2020/12/07 11:31:04;;;;;;;10.05;7.43;;;5.90;99.90;;;;;;5054905;28;20222;-76
2020/12/07 11:33:31;;;;;;;9.57;6.28;;;5.80;99.90;;;;;;5054869;28;20266;-76
2020/12/07 11:35:56;;;;;;;7.40;5.85;;;5.80;99.90;;;;;;5054511;28;20270;-76
2020/12/07 11:38:24;;;;;;;8.43;6.53;;;5.80;99.90;;;;;;5054698;28;20646;-76
2020/12/07 11:43:32;;;;;;;6.00;5.25;;;5.70;99.90;;;;;;5054978;28;20173;-75
2020/12/07 11:45:58;;;;;;;7.68;4.75;;;5.70;99.90;;;;;;5054232;28;20274;-77
2020/12/07 11:48:23;;;;;;;7.27;4.20;;;5.60;99.90;;;;;;5054494;28;20165;-75
2020/12/07 11:50:49;;;;;;;7.30;4.10;;;5.50;99.90;;;;;;5054699;28;20185;-75
2020/12/07 11:53:15;;;;;;;4.53;3.50;;;5.60;99.90;;;;;;5054956;28;20234;-76
2020/12/07 11:55:40;;;;;;;6.07;3.47;;;5.40;99.90;;;;;;5053288;28;20193;-75
2020/12/07 11:58:06;;;;;;;7.63;3.60;;;5.30;99.90;;;;;;5054590;28;20203;-76
2020/12/07 12:00:31;;;;;;;4.73;3.20;;;5.20;99.90;;;;;;5054497;28;20525;-75
2020/12/07 12:02:57;;;;;;;6.50;3.70;;;5.20;99.90;;;;;;5054507;28;20194;-75
2020/12/07 12:05:23;;;;;;;4.23;3.83;;;5.20;99.90;;;;;;5053924;28;20209;-76
2020/12/07 12:07:48;;;;;;;5.80;4.43;;;5.30;99.90;;;;;;5054295;28;20695;-76
2020/12/07 12:10:14;;;;;;;4.93;4.40;;;5.20;99.90;;;;;;5054024;28;20162;-76
2020/12/07 12:12:39;;;;;;;4.97;4.47;;;5.20;99.90;;;;;;5054124;28;20650;-75
2020/12/07 12:15:05;;;;;;;7.77;5.00;;;5.10;99.90;;;;;;5053596;28;20300;-75
2020/12/07 12:17:31;;;;;;;7.93;4.80;;;5.10;99.90;;;;;;5054256;28;20182;-75
2020/12/07 12:19:56;;;;;;;6.53;4.93;;;5.10;99.90;;;;;;5054007;28;20461;-75
2020/12/07 12:22:22;;;;;;;5.57;5.00;;;5.10;99.90;;;;;;5054120;28;20269;-76
2020/12/07 12:24:48;;;;;;;7.73;5.50;;;5.30;99.90;;;;;;5053536;28;20202;-76
2020/12/07 12:27:14;;;;;;;6.87;5.63;;;5.30;99.90;;;;;;5054123;28;20412;-76
2020/12/07 12:29:39;;;;;;;9.70;6.23;;;5.30;99.90;;;;;;5052647;28;20790;-76
2020/12/07 12:32:05;;;;;;;5.97;4.73;;;5.30;99.90;;;;;;5053858;28;20657;-76
2020/12/07 12:34:31;;;;;;;7.07;5.87;;;5.20;99.90;;;;;;5053103;28;20193;-76
2020/12/07 12:36:56;;;;;;;8.03;5.47;;;5.30;99.90;;;;;;5053663;28;20407;-75
2020/12/07 12:39:22;;;;;;;9.23;6.27;;;5.30;99.90;;;;;;5053598;28;20588;-76
2020/12/07 12:41:47;;;;;;;11.53;7.40;;;5.30;99.90;;;;;;5053562;28;20169;-75
2020/12/07 12:44:13;;;;;;;8.77;7.00;;;5.30;99.90;;;;;;5053242;28;20189;-75
2020/12/07 12:46:39;;;;;;;10.53;6.60;;;5.30;99.90;;;;;;5053340;28;20828;-76
2020/12/07 12:49:05;;;;;;;7.40;6.20;;;5.40;99.90;;;;;;5053317;28;20209;-75
2020/12/07 12:51:31;;;;;;;8.10;6.40;;;5.40;99.90;;;;;;5053539;28;20401;-75
2020/12/07 12:53:57;;;;;;;9.48;7.35;;;5.40;99.90;;;;;;5053196;28;20173;-76
2020/12/07 12:56:23;;;;;;;9.40;7.20;;;5.60;99.90;;;;;;5053337;28;20666;-75
2020/12/07 12:58:48;;;;;;;8.23;6.40;;;5.70;99.90;;;;;;5053301;28;20221;-76
2020/12/07 13:01:14;;;;;;;8.17;6.30;;;5.70;99.90;;;;;;5053429;28;20412;-76
2020/12/07 13:03:41;;;;;;;8.25;6.40;;;5.80;99.90;;;;;;5051603;28;20420;-76
2020/12/07 13:06:07;;;;;;;15.15;7.57;;;5.90;99.90;;;;;;5050763;28;20225;-75
2020/12/07 13:08:33;;;;;;;9.30;7.40;;;6.00;99.90;;;;;;5052412;28;20174;-76
2020/12/07 13:10:59;;;;;;;9.20;6.80;;;6.00;99.90;;;;;;5052982;28;20521;-79
2020/12/07 13:13:25;;;;;;;7.73;6.43;;;6.10;99.90;;;;;;5053285;28;20191;-77
2020/12/07 13:16:02;;;;;;;9.60;7.10;;;6.20;99.90;;;;;;5052724;28;20443;-77
2020/12/07 13:18:36;;;;;;;9.32;6.95;;;6.20;99.90;;;;;;5052959;28;20442;-76
2020/12/07 13:21:11;;;;;;;8.85;6.80;;;6.20;99.90;;;;;;5052760;28;20174;-76